sensor_id;sensor_type;location;lat;lon;timestamp;pressure;altitude;pressure_sealevel;temperature
51693;BMP280;37777;53.066;21.638;2023-07-13T00:06:45;100170.63;;;19.07
51693;BMP280;37777;53.066;21.638;2023-07-13T00:13:47;100153.47;;;18.99
51693;BMP280;37777;53.066;21.638;2023-07-13T00:20:49;100156.38;;;18.84
51693;BMP280;37777;53.066;21.638;2023-07-13T00:27:52;100157.13;;;18.89
51693;BMP280;37777;53.066;21.638;2023-07-13T00:34:54;100159.66;;;18.72
51693;BMP280;37777;53.066;21.638;2023-07-13T00:41:56;100145.22;;;18.68
51693;BMP280;37777;53.066;21.638;2023-07-13T00:49:02;100132.69;;;18.67
51693;BMP280;37777;53.066;21.638;2023-07-13T00:56:06;100139.00;;;18.64
51693;BMP280;37777;53.066;21.638;2023-07-13T01:03:08;100114.84;;;18.55
51693;BMP280;37777;53.066;21.638;2023-07-13T01:10:12;100117.13;;;18.57
51693;BMP280;37777;53.066;21.638;2023-07-13T01:17:15;100101.72;;;18.32
51693;BMP280;37777;53.066;21.638;2023-07-13T01:24:17;100098.66;;;18.30
51693;BMP280;37777;53.066;21.638;2023-07-13T01:31:19;100113.25;;;18.16
51693;BMP280;37777;53.066;21.638;2023-07-13T01:38:22;100107.63;;;17.89
51693;BMP280;37777;53.066;21.638;2023-07-13T01:45:24;100133.50;;;17.81
51693;BMP280;37777;53.066;21.638;2023-07-13T01:52:26;100133.31;;;18.06
51693;BMP280;37777;53.066;21.638;2023-07-13T01:59:28;100149.03;;;17.91
51693;BMP280;37777;53.066;21.638;2023-07-13T02:06:30;100155.34;;;17.88
51693;BMP280;37777;53.066;21.638;2023-07-13T02:13:32;100176.06;;;17.82
51693;BMP280;37777;53.066;21.638;2023-07-13T02:20:34;100164.75;;;17.80
51693;BMP280;37777;53.066;21.638;2023-07-13T02:27:36;100171.81;;;17.77
51693;BMP280;37777;53.066;21.638;2023-07-13T02:34:40;100166.19;;;18.02
51693;BMP280;37777;53.066;21.638;2023-07-13T02:41:44;100177.91;;;17.99
51693;BMP280;37777;53.066;21.638;2023-07-13T02:48:46;100174.69;;;18.08
51693;BMP280;37777;53.066;21.638;2023-07-13T02:55:48;100178.19;;;18.16
51693;BMP280;37777;53.066;21.638;2023-07-13T03:02:50;100180.19;;;18.12
51693;BMP280;37777;53.066;21.638;2023-07-13T03:09:56;100180.66;;;17.99
51693;BMP280;37777;53.066;21.638;2023-07-13T03:16:58;100168.47;;;18.07
51693;BMP280;37777;53.066;21.638;2023-07-13T03:24:01;100172.44;;;17.99
51693;BMP280;37777;53.066;21.638;2023-07-13T03:31:08;100169.28;;;18.04
51693;BMP280;37777;53.066;21.638;2023-07-13T03:38:11;100167.59;;;18.18
51693;BMP280;37777;53.066;21.638;2023-07-13T03:45:13;100172.28;;;18.21
51693;BMP280;37777;53.066;21.638;2023-07-13T03:52:15;100179.31;;;18.22
51693;BMP280;37777;53.066;21.638;2023-07-13T03:59:17;100158.94;;;18.23
51693;BMP280;37777;53.066;21.638;2023-07-13T04:06:21;100186.59;;;18.39
51693;BMP280;37777;53.066;21.638;2023-07-13T04:13:25;100182.13;;;18.56
51693;BMP280;37777;53.066;21.638;2023-07-13T04:20:28;100187.38;;;18.78
51693;BMP280;37777;53.066;21.638;2023-07-13T04:27:30;100198.63;;;18.87
51693;BMP280;37777;53.066;21.638;2023-07-13T04:34:32;100211.94;;;18.89
51693;BMP280;37777;53.066;21.638;2023-07-13T04:41:35;100212.31;;;18.91
51693;BMP280;37777;53.066;21.638;2023-07-13T04:48:37;100221.56;;;19.04
51693;BMP280;37777;53.066;21.638;2023-07-13T04:55:39;100238.66;;;19.15
51693;BMP280;37777;53.066;21.638;2023-07-13T05:02:45;100242.41;;;19.29
51693;BMP280;37777;53.066;21.638;2023-07-13T05:09:48;100261.94;;;19.34
51693;BMP280;37777;53.066;21.638;2023-07-13T05:16:50;100264.25;;;19.70
51693;BMP280;37777;53.066;21.638;2023-07-13T05:23:52;100261.81;;;19.76
51693;BMP280;37777;53.066;21.638;2023-07-13T05:30:54;100271.56;;;19.80
51693;BMP280;37777;53.066;21.638;2023-07-13T05:37:57;100283.81;;;19.99
51693;BMP280;37777;53.066;21.638;2023-07-13T05:44:59;100294.13;;;19.92
51693;BMP280;37777;53.066;21.638;2023-07-13T05:52:01;100306.63;;;19.96
51693;BMP280;37777;53.066;21.638;2023-07-13T05:59:03;100294.59;;;20.14
51693;BMP280;37777;53.066;21.638;2023-07-13T06:06:06;100295.88;;;20.33
51693;BMP280;37777;53.066;21.638;2023-07-13T06:13:09;100294.59;;;20.61
51693;BMP280;37777;53.066;21.638;2023-07-13T06:20:11;100296.88;;;20.86
51693;BMP280;37777;53.066;21.638;2023-07-13T06:27:13;100308.06;;;20.99
51693;BMP280;37777;53.066;21.638;2023-07-13T06:34:15;100317.53;;;21.38
51693;BMP280;37777;53.066;21.638;2023-07-13T06:41:17;100307.50;;;21.28
51693;BMP280;37777;53.066;21.638;2023-07-13T06:48:19;100323.03;;;21.38
51693;BMP280;37777;53.066;21.638;2023-07-13T06:55:21;100311.78;;;21.85
51693;BMP280;37777;53.066;21.638;2023-07-13T07:02:23;100305.38;;;22.08
51693;BMP280;37777;53.066;21.638;2023-07-13T07:09:26;100306.81;;;22.46
51693;BMP280;37777;53.066;21.638;2023-07-13T07:16:28;100299.22;;;22.50
51693;BMP280;37777;53.066;21.638;2023-07-13T07:23:30;100314.47;;;22.84
51693;BMP280;37777;53.066;21.638;2023-07-13T07:30:32;100304.28;;;22.97
51693;BMP280;37777;53.066;21.638;2023-07-13T07:37:37;100295.75;;;23.46
51693;BMP280;37777;53.066;21.638;2023-07-13T07:44:42;100304.78;;;23.34
51693;BMP280;37777;53.066;21.638;2023-07-13T07:51:44;100304.56;;;23.41
51693;BMP280;37777;53.066;21.638;2023-07-13T07:58:46;100299.06;;;23.79
51693;BMP280;37777;53.066;21.638;2023-07-13T08:05:54;100300.03;;;23.98
51693;BMP280;37777;53.066;21.638;2023-07-13T08:12:59;100296.59;;;23.94
51693;BMP280;37777;53.066;21.638;2023-07-13T08:20:13;100298.31;;;24.61
51693;BMP280;37777;53.066;21.638;2023-07-13T08:27:15;100311.16;;;24.77
51693;BMP280;37777;53.066;21.638;2023-07-13T08:34:17;100300.63;;;24.85
51693;BMP280;37777;53.066;21.638;2023-07-13T08:41:19;100303.06;;;25.05
51693;BMP280;37777;53.066;21.638;2023-07-13T08:48:35;100308.50;;;24.74
51693;BMP280;37777;53.066;21.638;2023-07-13T08:55:38;100302.81;;;24.68
51693;BMP280;37777;53.066;21.638;2023-07-13T09:02:45;100303.34;;;24.76
51693;BMP280;37777;53.066;21.638;2023-07-13T09:10:17;100303.38;;;24.85
51693;BMP280;37777;53.066;21.638;2023-07-13T09:17:22;100309.50;;;24.80
51693;BMP280;37777;53.066;21.638;2023-07-13T09:24:52;100306.03;;;24.89
51693;BMP280;37777;53.066;21.638;2023-07-13T09:32:00;100298.09;;;25.00
51693;BMP280;37777;53.066;21.638;2023-07-13T09:39:45;100294.75;;;25.05
51693;BMP280;37777;53.066;21.638;2023-07-13T09:46:51;100292.25;;;25.60
51693;BMP280;37777;53.066;21.638;2023-07-13T09:53:54;100293.25;;;25.94
51693;BMP280;37777;53.066;21.638;2023-07-13T10:01:01;100284.78;;;26.25
51693;BMP280;37777;53.066;21.638;2023-07-13T10:08:28;100275.81;;;26.67
51693;BMP280;37777;53.066;21.638;2023-07-13T10:15:32;100265.81;;;26.61
51693;BMP280;37777;53.066;21.638;2023-07-13T10:22:51;100271.78;;;26.78
51693;BMP280;37777;53.066;21.638;2023-07-13T10:37:20;100251.66;;;27.11
51693;BMP280;37777;53.066;21.638;2023-07-13T10:44:28;100252.59;;;27.32
51693;BMP280;37777;53.066;21.638;2023-07-13T10:51:30;100236.72;;;27.32
51693;BMP280;37777;53.066;21.638;2023-07-13T10:58:41;100240.25;;;27.81
51693;BMP280;37777;53.066;21.638;2023-07-13T11:05:44;100231.34;;;27.53
51693;BMP280;37777;53.066;21.638;2023-07-13T11:12:54;100248.31;;;27.31
51693;BMP280;37777;53.066;21.638;2023-07-13T11:20:23;100238.47;;;27.68
51693;BMP280;37777;53.066;21.638;2023-07-13T11:27:38;100237.25;;;27.45
51693;BMP280;37777;53.066;21.638;2023-07-13T11:34:41;100238.47;;;27.20
51693;BMP280;37777;53.066;21.638;2023-07-13T11:41:47;100248.72;;;26.96
51693;BMP280;37777;53.066;21.638;2023-07-13T11:48:52;100237.81;;;27.25
51693;BMP280;37777;53.066;21.638;2023-07-13T11:55:54;100237.63;;;27.05
51693;BMP280;37777;53.066;21.638;2023-07-13T12:02:59;100239.53;;;26.90
51693;BMP280;37777;53.066;21.638;2023-07-13T12:10:16;100242.56;;;27.01
51693;BMP280;37777;53.066;21.638;2023-07-13T12:17:21;100236.31;;;27.15
51693;BMP280;37777;53.066;21.638;2023-07-13T12:24:25;100240.53;;;27.11
51693;BMP280;37777;53.066;21.638;2023-07-13T12:31:40;100232.88;;;27.29
51693;BMP280;37777;53.066;21.638;2023-07-13T12:38:45;100227.81;;;27.28
51693;BMP280;37777;53.066;21.638;2023-07-13T12:45:56;100233.38;;;27.28
51693;BMP280;37777;53.066;21.638;2023-07-13T12:53:03;100226.16;;;27.21
51693;BMP280;37777;53.066;21.638;2023-07-13T13:00:22;100231.84;;;27.42
51693;BMP280;37777;53.066;21.638;2023-07-13T13:07:26;100235.47;;;27.33
51693;BMP280;37777;53.066;21.638;2023-07-13T13:14:28;100240.09;;;27.03
51693;BMP280;37777;53.066;21.638;2023-07-13T13:21:30;100243.44;;;27.16
51693;BMP280;37777;53.066;21.638;2023-07-13T13:28:34;100248.63;;;26.90
51693;BMP280;37777;53.066;21.638;2023-07-13T13:35:36;100258.56;;;26.63
51693;BMP280;37777;53.066;21.638;2023-07-13T13:42:38;100251.31;;;26.57
51693;BMP280;37777;53.066;21.638;2023-07-13T13:49:40;100254.75;;;26.15
51693;BMP280;37777;53.066;21.638;2023-07-13T13:56:44;100266.91;;;25.99
51693;BMP280;37777;53.066;21.638;2023-07-13T14:03:46;100271.34;;;25.87
51693;BMP280;37777;53.066;21.638;2023-07-13T14:10:54;100265.06;;;25.87
51693;BMP280;37777;53.066;21.638;2023-07-13T14:17:57;100274.72;;;25.82
51693;BMP280;37777;53.066;21.638;2023-07-13T14:24:59;100271.66;;;25.80
51693;BMP280;37777;53.066;21.638;2023-07-13T14:32:02;100267.69;;;25.81
51693;BMP280;37777;53.066;21.638;2023-07-13T14:39:13;100282.75;;;25.80
51693;BMP280;37777;53.066;21.638;2023-07-13T14:46:34;100279.91;;;25.61
51693;BMP280;37777;53.066;21.638;2023-07-13T14:53:37;100297.06;;;25.07
51693;BMP280;37777;53.066;21.638;2023-07-13T15:00:41;100315.13;;;24.32
51693;BMP280;37777;53.066;21.638;2023-07-13T15:07:43;100334.06;;;23.95
51693;BMP280;37777;53.066;21.638;2023-07-13T15:14:45;100338.00;;;23.30
51693;BMP280;37777;53.066;21.638;2023-07-13T15:21:48;100340.69;;;22.75
51693;BMP280;37777;53.066;21.638;2023-07-13T15:28:50;100335.31;;;22.85
51693;BMP280;37777;53.066;21.638;2023-07-13T15:35:52;100333.78;;;22.84
51693;BMP280;37777;53.066;21.638;2023-07-13T15:42:55;100331.13;;;22.80
51693;BMP280;37777;53.066;21.638;2023-07-13T15:49:58;100341.63;;;22.56
51693;BMP280;37777;53.066;21.638;2023-07-13T15:57:01;100349.19;;;22.35
51693;BMP280;37777;53.066;21.638;2023-07-13T16:04:03;100355.03;;;22.05
51693;BMP280;37777;53.066;21.638;2023-07-13T16:11:15;100356.22;;;22.04
51693;BMP280;37777;53.066;21.638;2023-07-13T16:18:18;100350.22;;;22.09
51693;BMP280;37777;53.066;21.638;2023-07-13T16:25:23;100351.41;;;22.08
51693;BMP280;37777;53.066;21.638;2023-07-13T16:32:26;100339.00;;;21.99
51693;BMP280;37777;53.066;21.638;2023-07-13T16:39:30;100350.56;;;21.74
51693;BMP280;37777;53.066;21.638;2023-07-13T16:46:35;100343.31;;;21.64
51693;BMP280;37777;53.066;21.638;2023-07-13T16:53:38;100348.28;;;21.53
51693;BMP280;37777;53.066;21.638;2023-07-13T17:00:43;100359.19;;;21.36
51693;BMP280;37777;53.066;21.638;2023-07-13T17:07:46;100359.50;;;21.42
51693;BMP280;37777;53.066;21.638;2023-07-13T17:14:49;100371.44;;;21.35
51693;BMP280;37777;53.066;21.638;2023-07-13T17:21:51;100370.53;;;21.42
51693;BMP280;37777;53.066;21.638;2023-07-13T17:28:54;100359.72;;;21.51
51693;BMP280;37777;53.066;21.638;2023-07-13T17:35:58;100371.22;;;21.26
51693;BMP280;37777;53.066;21.638;2023-07-13T17:43:01;100372.25;;;21.12
51693;BMP280;37777;53.066;21.638;2023-07-13T17:50:16;100365.81;;;21.19
51693;BMP280;37777;53.066;21.638;2023-07-13T17:57:20;100364.22;;;21.22
51693;BMP280;37777;53.066;21.638;2023-07-13T18:04:22;100367.91;;;21.35
51693;BMP280;37777;53.066;21.638;2023-07-13T18:11:26;100363.81;;;21.43
51693;BMP280;37777;53.066;21.638;2023-07-13T18:18:34;100372.34;;;21.49
51693;BMP280;37777;53.066;21.638;2023-07-13T18:25:37;100366.91;;;21.45
51693;BMP280;37777;53.066;21.638;2023-07-13T18:32:41;100362.41;;;21.35
51693;BMP280;37777;53.066;21.638;2023-07-13T18:39:49;100380.59;;;21.29
51693;BMP280;37777;53.066;21.638;2023-07-13T18:46:53;100387.28;;;20.84
51693;BMP280;37777;53.066;21.638;2023-07-13T18:53:56;100398.22;;;21.31
51693;BMP280;37777;53.066;21.638;2023-07-13T19:01:01;100416.91;;;21.40
51693;BMP280;37777;53.066;21.638;2023-07-13T19:08:20;100399.94;;;21.45
51693;BMP280;37777;53.066;21.638;2023-07-13T19:15:26;100419.13;;;21.49
51693;BMP280;37777;53.066;21.638;2023-07-13T19:22:28;100422.31;;;21.47
51693;BMP280;37777;53.066;21.638;2023-07-13T19:29:31;100420.13;;;21.38
51693;BMP280;37777;53.066;21.638;2023-07-13T19:36:39;100418.03;;;20.99
51693;BMP280;37777;53.066;21.638;2023-07-13T19:43:42;100428.59;;;21.04
51693;BMP280;37777;53.066;21.638;2023-07-13T19:50:49;100430.84;;;21.09
51693;BMP280;37777;53.066;21.638;2023-07-13T19:57:52;100438.16;;;20.96
51693;BMP280;37777;53.066;21.638;2023-07-13T20:04:56;100434.59;;;20.95
51693;BMP280;37777;53.066;21.638;2023-07-13T20:12:12;100433.19;;;20.87
51693;BMP280;37777;53.066;21.638;2023-07-13T20:19:17;100441.16;;;20.78
51693;BMP280;37777;53.066;21.638;2023-07-13T20:26:20;100447.31;;;20.62
51693;BMP280;37777;53.066;21.638;2023-07-13T20:33:25;100451.94;;;20.41
51693;BMP280;37777;53.066;21.638;2023-07-13T20:40:31;100460.97;;;20.08
51693;BMP280;37777;53.066;21.638;2023-07-13T20:47:33;100458.69;;;20.06
51693;BMP280;37777;53.066;21.638;2023-07-13T20:54:36;100488.63;;;19.93
51693;BMP280;37777;53.066;21.638;2023-07-13T21:01:38;100491.69;;;19.99
51693;BMP280;37777;53.066;21.638;2023-07-13T21:08:43;100484.31;;;19.92
51693;BMP280;37777;53.066;21.638;2023-07-13T21:15:46;100489.72;;;19.65
51693;BMP280;37777;53.066;21.638;2023-07-13T21:22:49;100502.28;;;19.59
51693;BMP280;37777;53.066;21.638;2023-07-13T21:29:51;100503.47;;;19.61
51693;BMP280;37777;53.066;21.638;2023-07-13T21:36:55;100500.03;;;19.50
51693;BMP280;37777;53.066;21.638;2023-07-13T21:44:01;100516.22;;;19.37
51693;BMP280;37777;53.066;21.638;2023-07-13T21:51:23;100505.13;;;19.03
51693;BMP280;37777;53.066;21.638;2023-07-13T21:58:27;100507.88;;;19.03
51693;BMP280;37777;53.066;21.638;2023-07-13T22:05:30;100507.88;;;18.99
51693;BMP280;37777;53.066;21.638;2023-07-13T22:12:32;100503.63;;;18.88
51693;BMP280;37777;53.066;21.638;2023-07-13T22:19:34;100493.16;;;18.72
51693;BMP280;37777;53.066;21.638;2023-07-13T22:26:36;100499.88;;;18.63
51693;BMP280;37777;53.066;21.638;2023-07-13T22:33:38;100498.69;;;18.61
51693;BMP280;37777;53.066;21.638;2023-07-13T22:40:40;100497.53;;;18.65
51693;BMP280;37777;53.066;21.638;2023-07-13T22:47:42;100492.38;;;18.71
51693;BMP280;37777;53.066;21.638;2023-07-13T22:54:45;100477.66;;;18.43
51693;BMP280;37777;53.066;21.638;2023-07-13T23:01:47;100478.00;;;18.53
51693;BMP280;37777;53.066;21.638;2023-07-13T23:08:50;100482.69;;;18.56
51693;BMP280;37777;53.066;21.638;2023-07-13T23:15:52;100488.09;;;18.66
51693;BMP280;37777;53.066;21.638;2023-07-13T23:22:55;100489.22;;;18.76
51693;BMP280;37777;53.066;21.638;2023-07-13T23:30:00;100492.72;;;18.77
51693;BMP280;37777;53.066;21.638;2023-07-13T23:37:04;100492.72;;;18.80
51693;BMP280;37777;53.066;21.638;2023-07-13T23:44:13;100497.06;;;18.74
51693;BMP280;37777;53.066;21.638;2023-07-13T23:51:17;100503.75;;;18.66
51693;BMP280;37777;53.066;21.638;2023-07-13T23:58:21;100494.38;;;18.67
